sensor_id;sensor_type;location;lat;lon;timestamp;pressure;altitude;pressure_sealevel;temperature;humidity
52935;BME280;38802;50.198;19.796;2023-12-29T00:00:31;96094.80;;;5.10;90.27
52935;BME280;38802;50.198;19.796;2023-12-29T00:03:19;96091.70;;;5.15;90.50
52935;BME280;38802;50.198;19.796;2023-12-29T00:05:47;96094.31;;;5.21;90.67
52935;BME280;38802;50.198;19.796;2023-12-29T00:08:15;96091.39;;;5.26;90.85
52935;BME280;38802;50.198;19.796;2023-12-29T00:10:43;96086.09;;;5.36;91.19
52935;BME280;38802;50.198;19.796;2023-12-29T00:13:11;96089.95;;;5.41;91.32
52935;BME280;38802;50.198;19.796;2023-12-29T00:15:39;96079.90;;;5.47;91.67
52935;BME280;38802;50.198;19.796;2023-12-29T00:18:08;96077.80;;;5.53;92.10
52935;BME280;38802;50.198;19.796;2023-12-29T00:20:36;96079.13;;;5.59;92.42
52935;BME280;38802;50.198;19.796;2023-12-29T00:23:09;96072.98;;;5.63;92.59
52935;BME280;38802;50.198;19.796;2023-12-29T00:25:37;96072.98;;;5.71;92.71
52935;BME280;38802;50.198;19.796;2023-12-29T00:28:05;96071.74;;;5.77;92.76
52935;BME280;38802;50.198;19.796;2023-12-29T00:30:38;96072.20;;;5.78;92.66
52935;BME280;38802;50.198;19.796;2023-12-29T00:33:25;96074.20;;;5.81;92.65
52935;BME280;38802;50.198;19.796;2023-12-29T00:35:54;96071.56;;;5.85;92.67
52935;BME280;38802;50.198;19.796;2023-12-29T00:38:23;96076.67;;;5.88;92.67
52935;BME280;38802;50.198;19.796;2023-12-29T00:40:50;96077.97;;;5.90;92.49
52935;BME280;38802;50.198;19.796;2023-12-29T00:43:19;96076.23;;;5.92;92.63
52935;BME280;38802;50.198;19.796;2023-12-29T00:45:46;96075.58;;;5.95;92.58
52935;BME280;38802;50.198;19.796;2023-12-29T00:48:15;96068.67;;;5.95;92.62
52935;BME280;38802;50.198;19.796;2023-12-29T00:50:43;96062.30;;;6.00;92.80
52935;BME280;38802;50.198;19.796;2023-12-29T00:53:11;96058.30;;;6.03;92.82
52935;BME280;38802;50.198;19.796;2023-12-29T00:55:40;96057.20;;;6.01;92.75
52935;BME280;38802;50.198;19.796;2023-12-29T00:58:08;96050.45;;;6.04;92.68
52935;BME280;38802;50.198;19.796;2023-12-29T01:00:36;96055.08;;;6.08;92.54
52935;BME280;38802;50.198;19.796;2023-12-29T01:03:04;96059.30;;;6.04;92.38
52935;BME280;38802;50.198;19.796;2023-12-29T01:05:32;96058.91;;;6.04;92.36
52935;BME280;38802;50.198;19.796;2023-12-29T01:08:00;96053.77;;;6.04;92.00
52935;BME280;38802;50.198;19.796;2023-12-29T01:10:29;96053.30;;;6.03;91.94
52935;BME280;38802;50.198;19.796;2023-12-29T01:12:57;96049.77;;;5.99;91.91
52935;BME280;38802;50.198;19.796;2023-12-29T01:15:26;96049.34;;;5.97;91.83
52935;BME280;38802;50.198;19.796;2023-12-29T01:17:54;96045.47;;;5.99;91.86
52935;BME280;38802;50.198;19.796;2023-12-29T01:20:22;96049.69;;;5.97;91.70
52935;BME280;38802;50.198;19.796;2023-12-29T01:22:51;96038.85;;;5.97;91.77
52935;BME280;38802;50.198;19.796;2023-12-29T01:25:19;96039.27;;;5.93;91.87
52935;BME280;38802;50.198;19.796;2023-12-29T01:27:47;96036.74;;;5.90;91.90
52935;BME280;38802;50.198;19.796;2023-12-29T01:30:15;96038.64;;;5.84;92.06
52935;BME280;38802;50.198;19.796;2023-12-29T01:32:43;96032.23;;;5.78;92.13
52935;BME280;38802;50.198;19.796;2023-12-29T01:35:12;96028.19;;;5.73;92.13
52935;BME280;38802;50.198;19.796;2023-12-29T01:37:39;96031.16;;;5.70;92.21
52935;BME280;38802;50.198;19.796;2023-12-29T01:40:09;96028.27;;;5.70;92.52
52935;BME280;38802;50.198;19.796;2023-12-29T01:42:37;96023.77;;;5.70;92.53
52935;BME280;38802;50.198;19.796;2023-12-29T01:45:09;96023.66;;;5.66;92.55
52935;BME280;38802;50.198;19.796;2023-12-29T01:47:46;96021.45;;;5.63;92.63
52935;BME280;38802;50.198;19.796;2023-12-29T01:50:15;96015.17;;;5.61;92.71
52935;BME280;38802;50.198;19.796;2023-12-29T01:52:48;96014.48;;;5.59;93.02
52935;BME280;38802;50.198;19.796;2023-12-29T01:55:20;96002.85;;;5.57;93.14
52935;BME280;38802;50.198;19.796;2023-12-29T01:57:52;96009.11;;;5.59;93.26
52935;BME280;38802;50.198;19.796;2023-12-29T02:00:21;96010.02;;;5.56;93.41
52935;BME280;38802;50.198;19.796;2023-12-29T02:02:49;96009.10;;;5.54;93.39
52935;BME280;38802;50.198;19.796;2023-12-29T02:05:20;96012.23;;;5.54;93.49
52935;BME280;38802;50.198;19.796;2023-12-29T02:07:51;96003.17;;;5.53;93.54
52935;BME280;38802;50.198;19.796;2023-12-29T02:10:21;96002.36;;;5.49;93.63
52935;BME280;38802;50.198;19.796;2023-12-29T02:12:50;95999.04;;;5.45;93.94
52935;BME280;38802;50.198;19.796;2023-12-29T02:15:22;95996.02;;;5.41;93.95
52935;BME280;38802;50.198;19.796;2023-12-29T02:18:01;95993.33;;;5.40;94.07
52935;BME280;38802;50.198;19.796;2023-12-29T02:20:31;95994.07;;;5.34;93.97
52935;BME280;38802;50.198;19.796;2023-12-29T02:22:59;95987.48;;;5.32;94.21
52935;BME280;38802;50.198;19.796;2023-12-29T02:25:28;95974.84;;;5.28;94.24
52935;BME280;38802;50.198;19.796;2023-12-29T02:28:32;95975.63;;;5.26;94.41
52935;BME280;38802;50.198;19.796;2023-12-29T02:31:09;95980.72;;;5.22;94.40
52935;BME280;38802;50.198;19.796;2023-12-29T02:33:40;95980.23;;;5.19;94.55
52935;BME280;38802;50.198;19.796;2023-12-29T02:36:12;95971.69;;;5.15;94.60
52935;BME280;38802;50.198;19.796;2023-12-29T02:38:41;95967.75;;;5.10;94.71
52935;BME280;38802;50.198;19.796;2023-12-29T02:41:11;95967.05;;;5.07;94.66
52935;BME280;38802;50.198;19.796;2023-12-29T02:43:41;95967.52;;;5.05;94.89
52935;BME280;38802;50.198;19.796;2023-12-29T02:46:09;95972.36;;;5.05;95.12
52935;BME280;38802;50.198;19.796;2023-12-29T02:48:37;95966.77;;;5.04;95.14
52935;BME280;38802;50.198;19.796;2023-12-29T02:51:06;95967.21;;;4.99;95.04
52935;BME280;38802;50.198;19.796;2023-12-29T02:53:36;95964.45;;;4.97;95.11
52935;BME280;38802;50.198;19.796;2023-12-29T02:56:04;95962.52;;;4.95;95.40
52935;BME280;38802;50.198;19.796;2023-12-29T02:58:32;95969.98;;;4.91;95.38
52935;BME280;38802;50.198;19.796;2023-12-29T03:01:00;95964.39;;;4.93;95.64
52935;BME280;38802;50.198;19.796;2023-12-29T03:03:28;95967.02;;;4.92;95.68
52935;BME280;38802;50.198;19.796;2023-12-29T03:05:57;95960.95;;;4.92;95.89
52935;BME280;38802;50.198;19.796;2023-12-29T03:08:25;95958.16;;;4.93;95.87
52935;BME280;38802;50.198;19.796;2023-12-29T03:10:53;95952.81;;;4.93;96.02
52935;BME280;38802;50.198;19.796;2023-12-29T03:13:21;95953.38;;;4.95;96.28
52935;BME280;38802;50.198;19.796;2023-12-29T03:15:49;95946.42;;;4.99;96.50
52935;BME280;38802;50.198;19.796;2023-12-29T03:18:17;95941.54;;;4.97;96.21
52935;BME280;38802;50.198;19.796;2023-12-29T03:20:45;95943.02;;;4.98;96.50
52935;BME280;38802;50.198;19.796;2023-12-29T03:23:13;95941.14;;;4.98;96.55
52935;BME280;38802;50.198;19.796;2023-12-29T03:25:41;95944.31;;;4.97;96.43
52935;BME280;38802;50.198;19.796;2023-12-29T03:28:10;95943.75;;;4.95;96.33
52935;BME280;38802;50.198;19.796;2023-12-29T03:30:38;95939.58;;;4.95;96.29
52935;BME280;38802;50.198;19.796;2023-12-29T03:33:06;95940.48;;;4.95;96.26
52935;BME280;38802;50.198;19.796;2023-12-29T03:35:34;95938.56;;;4.93;96.07
52935;BME280;38802;50.198;19.796;2023-12-29T03:38:02;95938.62;;;4.92;95.94
52935;BME280;38802;50.198;19.796;2023-12-29T03:40:31;95936.95;;;4.91;96.00
52935;BME280;38802;50.198;19.796;2023-12-29T03:42:59;95934.27;;;4.90;96.13
52935;BME280;38802;50.198;19.796;2023-12-29T03:45:27;95928.08;;;4.87;95.95
52935;BME280;38802;50.198;19.796;2023-12-29T03:47:55;95926.25;;;4.86;96.05
52935;BME280;38802;50.198;19.796;2023-12-29T03:50:23;95928.10;;;4.82;95.92
52935;BME280;38802;50.198;19.796;2023-12-29T03:52:52;95927.35;;;4.80;96.01
52935;BME280;38802;50.198;19.796;2023-12-29T03:55:20;95932.33;;;4.77;96.03
52935;BME280;38802;50.198;19.796;2023-12-29T03:57:48;95931.60;;;4.78;96.33
52935;BME280;38802;50.198;19.796;2023-12-29T04:00:16;95927.02;;;4.73;96.08
52935;BME280;38802;50.198;19.796;2023-12-29T04:02:44;95927.56;;;4.70;95.91
52935;BME280;38802;50.198;19.796;2023-12-29T04:05:12;95925.80;;;4.68;95.90
52935;BME280;38802;50.198;19.796;2023-12-29T04:07:41;95925.67;;;4.68;95.86
52935;BME280;38802;50.198;19.796;2023-12-29T04:10:10;95926.84;;;4.63;95.92
52935;BME280;38802;50.198;19.796;2023-12-29T04:12:38;95927.08;;;4.57;96.05
52935;BME280;38802;50.198;19.796;2023-12-29T04:15:07;95925.34;;;4.52;96.26
52935;BME280;38802;50.198;19.796;2023-12-29T04:17:35;95920.80;;;4.50;96.72
52935;BME280;38802;50.198;19.796;2023-12-29T04:20:04;95921.39;;;4.49;96.92
52935;BME280;38802;50.198;19.796;2023-12-29T04:22:32;95923.91;;;4.50;97.14
52935;BME280;38802;50.198;19.796;2023-12-29T04:25:02;95922.46;;;4.48;96.82
52935;BME280;38802;50.198;19.796;2023-12-29T04:27:30;95926.70;;;4.46;96.71
52935;BME280;38802;50.198;19.796;2023-12-29T04:29:58;95927.86;;;4.45;96.64
52935;BME280;38802;50.198;19.796;2023-12-29T04:32:26;95926.79;;;4.45;96.60
52935;BME280;38802;50.198;19.796;2023-12-29T04:34:54;95916.27;;;4.48;96.68
52935;BME280;38802;50.198;19.796;2023-12-29T04:37:22;95915.25;;;4.51;96.62
52935;BME280;38802;50.198;19.796;2023-12-29T04:39:50;95919.20;;;4.51;96.49
52935;BME280;38802;50.198;19.796;2023-12-29T04:42:18;95920.58;;;4.51;96.40
52935;BME280;38802;50.198;19.796;2023-12-29T04:44:46;95918.70;;;4.48;96.58
52935;BME280;38802;50.198;19.796;2023-12-29T04:47:14;95912.75;;;4.44;96.84
52935;BME280;38802;50.198;19.796;2023-12-29T04:49:42;95910.46;;;4.39;97.06
52935;BME280;38802;50.198;19.796;2023-12-29T04:52:10;95909.06;;;4.40;97.19
52935;BME280;38802;50.198;19.796;2023-12-29T04:54:38;95909.82;;;4.39;97.14
52935;BME280;38802;50.198;19.796;2023-12-29T04:57:06;95903.98;;;4.41;97.17
52935;BME280;38802;50.198;19.796;2023-12-29T04:59:34;95902.35;;;4.46;97.11
52935;BME280;38802;50.198;19.796;2023-12-29T05:02:02;95902.17;;;4.48;97.00
52935;BME280;38802;50.198;19.796;2023-12-29T05:04:31;95901.05;;;4.52;97.10
52935;BME280;38802;50.198;19.796;2023-12-29T05:06:59;95905.94;;;4.54;96.94
52935;BME280;38802;50.198;19.796;2023-12-29T05:09:27;95900.25;;;4.59;96.91
52935;BME280;38802;50.198;19.796;2023-12-29T05:11:55;95897.60;;;4.63;96.72
52935;BME280;38802;50.198;19.796;2023-12-29T05:14:23;95902.38;;;4.66;96.66
52935;BME280;38802;50.198;19.796;2023-12-29T05:16:51;95899.64;;;4.71;96.65
52935;BME280;38802;50.198;19.796;2023-12-29T05:19:19;95893.39;;;4.74;96.69
52935;BME280;38802;50.198;19.796;2023-12-29T05:21:47;95886.57;;;4.82;96.59
52935;BME280;38802;50.198;19.796;2023-12-29T05:24:17;95887.55;;;4.88;96.52
52935;BME280;38802;50.198;19.796;2023-12-29T05:26:45;95880.11;;;4.99;96.19
52935;BME280;38802;50.198;19.796;2023-12-29T05:29:13;95880.16;;;5.06;96.08
52935;BME280;38802;50.198;19.796;2023-12-29T05:31:41;95886.92;;;5.13;95.82
52935;BME280;38802;50.198;19.796;2023-12-29T05:34:09;95892.42;;;5.18;95.72
52935;BME280;38802;50.198;19.796;2023-12-29T05:36:37;95894.42;;;5.23;95.62
52935;BME280;38802;50.198;19.796;2023-12-29T05:39:06;95896.48;;;5.27;95.39
52935;BME280;38802;50.198;19.796;2023-12-29T05:41:34;95896.39;;;5.31;95.32
52935;BME280;38802;50.198;19.796;2023-12-29T05:44:02;95897.69;;;5.38;95.17
52935;BME280;38802;50.198;19.796;2023-12-29T05:46:31;95897.15;;;5.44;94.97
52935;BME280;38802;50.198;19.796;2023-12-29T05:48:59;95897.05;;;5.47;94.96
52935;BME280;38802;50.198;19.796;2023-12-29T05:51:27;95894.60;;;5.53;94.80
52935;BME280;38802;50.198;19.796;2023-12-29T05:53:55;95894.74;;;5.58;94.52
52935;BME280;38802;50.198;19.796;2023-12-29T05:56:23;95904.84;;;5.62;94.49
52935;BME280;38802;50.198;19.796;2023-12-29T05:58:56;95904.02;;;5.67;94.31
52935;BME280;38802;50.198;19.796;2023-12-29T06:01:24;95902.93;;;5.73;93.95
52935;BME280;38802;50.198;19.796;2023-12-29T06:03:52;95899.99;;;5.80;93.64
52935;BME280;38802;50.198;19.796;2023-12-29T06:06:20;95895.32;;;5.83;93.62
52935;BME280;38802;50.198;19.796;2023-12-29T06:08:48;95898.42;;;5.88;93.53
52935;BME280;38802;50.198;19.796;2023-12-29T06:11:16;95900.48;;;5.91;93.61
52935;BME280;38802;50.198;19.796;2023-12-29T06:13:45;95894.45;;;5.93;93.59
52935;BME280;38802;50.198;19.796;2023-12-29T06:16:19;95889.92;;;6.02;93.20
52935;BME280;38802;50.198;19.796;2023-12-29T06:18:48;95884.70;;;6.05;93.31
52935;BME280;38802;50.198;19.796;2023-12-29T06:21:17;95886.14;;;6.07;93.23
52935;BME280;38802;50.198;19.796;2023-12-29T06:23:45;95893.10;;;6.11;93.18
52935;BME280;38802;50.198;19.796;2023-12-29T06:26:18;95891.55;;;6.15;93.25
52935;BME280;38802;50.198;19.796;2023-12-29T06:28:47;95889.80;;;6.18;93.06
52935;BME280;38802;50.198;19.796;2023-12-29T06:31:17;95892.21;;;6.21;93.08
52935;BME280;38802;50.198;19.796;2023-12-29T06:33:45;95892.25;;;6.23;93.03
52935;BME280;38802;50.198;19.796;2023-12-29T06:36:13;95887.38;;;6.26;93.13
52935;BME280;38802;50.198;19.796;2023-12-29T06:38:42;95888.80;;;6.27;93.05
52935;BME280;38802;50.198;19.796;2023-12-29T06:41:13;95894.20;;;6.32;93.00
52935;BME280;38802;50.198;19.796;2023-12-29T06:43:41;95889.48;;;6.37;92.86
52935;BME280;38802;50.198;19.796;2023-12-29T06:46:10;95893.41;;;6.42;92.77
52935;BME280;38802;50.198;19.796;2023-12-29T06:48:40;95892.38;;;6.43;92.93
52935;BME280;38802;50.198;19.796;2023-12-29T06:51:09;95892.91;;;6.47;92.87
52935;BME280;38802;50.198;19.796;2023-12-29T06:53:39;95898.26;;;6.50;92.78
52935;BME280;38802;50.198;19.796;2023-12-29T06:56:07;95891.72;;;6.54;92.62
52935;BME280;38802;50.198;19.796;2023-12-29T06:58:35;95893.20;;;6.55;92.48
52935;BME280;38802;50.198;19.796;2023-12-29T07:01:03;95884.02;;;6.60;92.24
52935;BME280;38802;50.198;19.796;2023-12-29T07:03:31;95879.23;;;6.65;92.04
52935;BME280;38802;50.198;19.796;2023-12-29T07:06:02;95870.44;;;6.67;92.07
52935;BME280;38802;50.198;19.796;2023-12-29T07:08:31;95873.08;;;6.69;91.97
52935;BME280;38802;50.198;19.796;2023-12-29T07:10:59;95883.58;;;6.69;91.90
52935;BME280;38802;50.198;19.796;2023-12-29T07:13:27;95887.36;;;6.69;92.04
52935;BME280;38802;50.198;19.796;2023-12-29T07:15:55;95876.83;;;6.72;91.93
52935;BME280;38802;50.198;19.796;2023-12-29T07:18:23;95877.05;;;6.74;91.75
52935;BME280;38802;50.198;19.796;2023-12-29T07:20:51;95882.52;;;6.74;91.97
52935;BME280;38802;50.198;19.796;2023-12-29T07:23:19;95880.88;;;6.78;91.79
52935;BME280;38802;50.198;19.796;2023-12-29T07:25:48;95871.42;;;6.82;91.57
52935;BME280;38802;50.198;19.796;2023-12-29T07:28:16;95878.52;;;6.84;91.50
52935;BME280;38802;50.198;19.796;2023-12-29T07:30:44;95883.94;;;6.85;91.50
52935;BME280;38802;50.198;19.796;2023-12-29T07:33:12;95878.27;;;6.87;91.53
52935;BME280;38802;50.198;19.796;2023-12-29T07:35:40;95876.90;;;6.92;91.24
52935;BME280;38802;50.198;19.796;2023-12-29T07:38:08;95879.92;;;6.93;91.21
52935;BME280;38802;50.198;19.796;2023-12-29T07:40:36;95884.86;;;6.94;91.10
52935;BME280;38802;50.198;19.796;2023-12-29T07:43:05;95885.39;;;6.94;91.03
52935;BME280;38802;50.198;19.796;2023-12-29T07:45:33;95889.11;;;6.92;90.78
52935;BME280;38802;50.198;19.796;2023-12-29T07:48:03;95891.25;;;6.89;90.88
52935;BME280;38802;50.198;19.796;2023-12-29T07:50:34;95889.72;;;6.89;91.02
52935;BME280;38802;50.198;19.796;2023-12-29T07:53:03;95890.95;;;6.91;90.93
52935;BME280;38802;50.198;19.796;2023-12-29T07:55:31;95889.46;;;6.90;90.85
52935;BME280;38802;50.198;19.796;2023-12-29T07:57:59;95888.39;;;6.90;90.90
52935;BME280;38802;50.198;19.796;2023-12-29T08:00:28;95889.59;;;6.90;91.01
52935;BME280;38802;50.198;19.796;2023-12-29T08:02:56;95899.23;;;6.93;90.94
52935;BME280;38802;50.198;19.796;2023-12-29T08:05:27;95900.65;;;6.95;91.03
52935;BME280;38802;50.198;19.796;2023-12-29T08:07:55;95901.02;;;7.02;90.68
52935;BME280;38802;50.198;19.796;2023-12-29T08:10:23;95893.33;;;7.04;90.88
52935;BME280;38802;50.198;19.796;2023-12-29T08:12:51;95897.14;;;7.10;90.63
52935;BME280;38802;50.198;19.796;2023-12-29T08:15:19;95894.91;;;7.15;90.41
52935;BME280;38802;50.198;19.796;2023-12-29T08:17:47;95894.69;;;7.18;90.38
52935;BME280;38802;50.198;19.796;2023-12-29T08:20:15;95897.63;;;7.20;90.44
52935;BME280;38802;50.198;19.796;2023-12-29T08:22:43;95889.71;;;7.24;90.37
52935;BME280;38802;50.198;19.796;2023-12-29T08:25:11;95893.26;;;7.32;90.08
52935;BME280;38802;50.198;19.796;2023-12-29T08:27:40;95900.84;;;7.32;90.15
52935;BME280;38802;50.198;19.796;2023-12-29T08:30:19;95901.08;;;7.36;90.02
52935;BME280;38802;50.198;19.796;2023-12-29T08:32:56;95901.93;;;7.41;89.65
52935;BME280;38802;50.198;19.796;2023-12-29T08:35:28;95910.38;;;7.42;89.85
52935;BME280;38802;50.198;19.796;2023-12-29T08:37:56;95906.70;;;7.49;89.20
52935;BME280;38802;50.198;19.796;2023-12-29T08:40:24;95905.73;;;7.52;89.09
52935;BME280;38802;50.198;19.796;2023-12-29T08:42:52;95907.16;;;7.56;88.73
52935;BME280;38802;50.198;19.796;2023-12-29T08:45:21;95908.88;;;7.59;88.61
52935;BME280;38802;50.198;19.796;2023-12-29T08:47:52;95908.41;;;7.63;88.33
52935;BME280;38802;50.198;19.796;2023-12-29T08:50:20;95913.98;;;7.67;88.23
52935;BME280;38802;50.198;19.796;2023-12-29T08:52:50;95914.89;;;7.73;87.90
52935;BME280;38802;50.198;19.796;2023-12-29T08:55:18;95920.84;;;7.79;87.60
52935;BME280;38802;50.198;19.796;2023-12-29T08:57:46;95928.51;;;7.80;87.29
52935;BME280;38802;50.198;19.796;2023-12-29T09:00:14;95928.85;;;7.80;87.02
52935;BME280;38802;50.198;19.796;2023-12-29T09:02:45;95931.23;;;7.81;87.12
52935;BME280;38802;50.198;19.796;2023-12-29T09:05:14;95933.21;;;7.85;86.99
52935;BME280;38802;50.198;19.796;2023-12-29T09:07:42;95930.68;;;7.89;86.56
52935;BME280;38802;50.198;19.796;2023-12-29T09:10:10;95933.09;;;7.91;86.34
52935;BME280;38802;50.198;19.796;2023-12-29T09:12:40;95933.36;;;7.90;86.17
52935;BME280;38802;50.198;19.796;2023-12-29T09:15:08;95926.99;;;7.92;85.90
52935;BME280;38802;50.198;19.796;2023-12-29T09:17:39;95927.25;;;7.93;85.39
52935;BME280;38802;50.198;19.796;2023-12-29T09:20:09;95923.00;;;7.94;85.19
52935;BME280;38802;50.198;19.796;2023-12-29T09:22:38;95923.27;;;7.91;85.54
52935;BME280;38802;50.198;19.796;2023-12-29T09:25:07;95920.77;;;7.94;85.45
52935;BME280;38802;50.198;19.796;2023-12-29T09:27:36;95923.25;;;7.93;85.49
52935;BME280;38802;50.198;19.796;2023-12-29T09:30:04;95916.19;;;7.93;85.70
52935;BME280;38802;50.198;19.796;2023-12-29T09:32:33;95916.92;;;7.92;85.92
52935;BME280;38802;50.198;19.796;2023-12-29T09:35:01;95917.42;;;7.93;85.83
52935;BME280;38802;50.198;19.796;2023-12-29T09:37:29;95911.42;;;7.98;85.43
52935;BME280;38802;50.198;19.796;2023-12-29T09:39:57;95904.75;;;7.97;85.38
52935;BME280;38802;50.198;19.796;2023-12-29T09:42:28;95901.37;;;7.99;85.27
52935;BME280;38802;50.198;19.796;2023-12-29T09:44:57;95894.04;;;8.02;85.33
52935;BME280;38802;50.198;19.796;2023-12-29T09:47:27;95891.94;;;8.02;85.00
52935;BME280;38802;50.198;19.796;2023-12-29T09:49:56;95897.08;;;8.03;84.97
52935;BME280;38802;50.198;19.796;2023-12-29T09:52:24;95893.75;;;7.99;85.57
52935;BME280;38802;50.198;19.796;2023-12-29T09:54:53;95890.87;;;8.07;85.36
52935;BME280;38802;50.198;19.796;2023-12-29T09:57:21;95886.03;;;8.06;85.51
52935;BME280;38802;50.198;19.796;2023-12-29T09:59:49;95877.59;;;8.08;85.24
52935;BME280;38802;50.198;19.796;2023-12-29T10:02:20;95881.05;;;8.08;85.03
52935;BME280;38802;50.198;19.796;2023-12-29T10:04:50;95876.66;;;8.09;84.98
52935;BME280;38802;50.198;19.796;2023-12-29T10:07:25;95878.11;;;8.08;85.15
52935;BME280;38802;50.198;19.796;2023-12-29T10:09:58;95874.09;;;8.13;84.86
52935;BME280;38802;50.198;19.796;2023-12-29T10:12:28;95872.29;;;8.12;84.75
52935;BME280;38802;50.198;19.796;2023-12-29T10:15:06;95868.61;;;8.12;84.62
52935;BME280;38802;50.198;19.796;2023-12-29T10:23:57;95860.80;;;8.15;84.49
52935;BME280;38802;50.198;19.796;2023-12-29T10:26:28;95862.25;;;8.18;84.73
52935;BME280;38802;50.198;19.796;2023-12-29T10:28:58;95856.27;;;8.25;84.83
52935;BME280;38802;50.198;19.796;2023-12-29T10:31:41;95849.59;;;8.32;84.71
52935;BME280;38802;50.198;19.796;2023-12-29T10:34:22;95853.77;;;8.41;84.46
52935;BME280;38802;50.198;19.796;2023-12-29T10:36:59;95852.80;;;8.44;84.33
52935;BME280;38802;50.198;19.796;2023-12-29T10:39:32;95852.52;;;8.43;84.36
52935;BME280;38802;50.198;19.796;2023-12-29T10:42:05;95849.88;;;8.46;84.08
52935;BME280;38802;50.198;19.796;2023-12-29T10:45:05;95849.59;;;8.45;84.26
52935;BME280;38802;50.198;19.796;2023-12-29T10:48:04;95835.63;;;8.51;83.69
52935;BME280;38802;50.198;19.796;2023-12-29T10:50:42;95840.05;;;8.50;83.77
52935;BME280;38802;50.198;19.796;2023-12-29T10:53:12;95837.08;;;8.48;83.87
52935;BME280;38802;50.198;19.796;2023-12-29T10:55:40;95836.20;;;8.55;83.63
52935;BME280;38802;50.198;19.796;2023-12-29T10:58:09;95834.13;;;8.55;83.44
52935;BME280;38802;50.198;19.796;2023-12-29T11:00:38;95830.72;;;8.56;83.47
52935;BME280;38802;50.198;19.796;2023-12-29T11:03:06;95828.38;;;8.57;83.53
52935;BME280;38802;50.198;19.796;2023-12-29T11:05:35;95828.02;;;8.57;83.54
52935;BME280;38802;50.198;19.796;2023-12-29T11:08:18;95826.45;;;8.60;83.51
52935;BME280;38802;50.198;19.796;2023-12-29T11:10:50;95818.39;;;8.68;82.88
52935;BME280;38802;50.198;19.796;2023-12-29T11:13:18;95819.08;;;8.65;82.56
52935;BME280;38802;50.198;19.796;2023-12-29T11:15:48;95827.60;;;8.67;82.43
52935;BME280;38802;50.198;19.796;2023-12-29T11:18:17;95826.69;;;8.65;82.80
52935;BME280;38802;50.198;19.796;2023-12-29T11:20:47;95819.89;;;8.68;82.87
52935;BME280;38802;50.198;19.796;2023-12-29T11:23:16;95817.93;;;8.75;82.34
52935;BME280;38802;50.198;19.796;2023-12-29T11:25:44;95810.39;;;8.74;82.24
52935;BME280;38802;50.198;19.796;2023-12-29T11:28:14;95809.44;;;8.75;82.14
52935;BME280;38802;50.198;19.796;2023-12-29T11:30:43;95810.42;;;8.76;82.29
52935;BME280;38802;50.198;19.796;2023-12-29T11:33:18;95804.44;;;8.81;81.73
52935;BME280;38802;50.198;19.796;2023-12-29T11:35:56;95816.48;;;8.80;81.92
52935;BME280;38802;50.198;19.796;2023-12-29T11:38:41;95820.27;;;8.87;81.82
52935;BME280;38802;50.198;19.796;2023-12-29T11:44:00;95818.09;;;8.96;81.25
52935;BME280;38802;50.198;19.796;2023-12-29T11:46:39;95817.27;;;8.94;81.52
52935;BME280;38802;50.198;19.796;2023-12-29T11:49:07;95820.02;;;8.98;81.31
52935;BME280;38802;50.198;19.796;2023-12-29T11:51:39;95817.85;;;8.99;81.00
52935;BME280;38802;50.198;19.796;2023-12-29T11:54:08;95821.64;;;9.00;80.68
52935;BME280;38802;50.198;19.796;2023-12-29T11:56:38;95821.67;;;8.99;80.53
52935;BME280;38802;50.198;19.796;2023-12-29T11:59:46;95817.95;;;8.98;80.32
52935;BME280;38802;50.198;19.796;2023-12-29T12:02:27;95816.21;;;8.96;80.29
52935;BME280;38802;50.198;19.796;2023-12-29T12:04:56;95825.56;;;8.94;80.56
52935;BME280;38802;50.198;19.796;2023-12-29T12:13:00;95819.67;;;8.98;79.54
52935;BME280;38802;50.198;19.796;2023-12-29T12:15:33;95814.96;;;8.92;79.54
52935;BME280;38802;50.198;19.796;2023-12-29T12:18:11;95815.45;;;8.91;79.35
52935;BME280;38802;50.198;19.796;2023-12-29T12:20:40;95807.58;;;8.88;79.60
52935;BME280;38802;50.198;19.796;2023-12-29T12:23:17;95812.60;;;8.87;79.66
52935;BME280;38802;50.198;19.796;2023-12-29T12:25:46;95817.02;;;8.88;79.19
52935;BME280;38802;50.198;19.796;2023-12-29T12:28:14;95816.63;;;8.83;79.24
52935;BME280;38802;50.198;19.796;2023-12-29T12:30:44;95814.02;;;8.83;79.35
52935;BME280;38802;50.198;19.796;2023-12-29T12:33:13;95810.59;;;8.80;79.32
52935;BME280;38802;50.198;19.796;2023-12-29T12:35:42;95812.74;;;8.79;79.32
52935;BME280;38802;50.198;19.796;2023-12-29T12:38:14;95812.21;;;8.77;79.02
52935;BME280;38802;50.198;19.796;2023-12-29T12:40:48;95810.33;;;8.71;79.02
52935;BME280;38802;50.198;19.796;2023-12-29T12:43:17;95814.96;;;8.67;79.22
52935;BME280;38802;50.198;19.796;2023-12-29T12:45:54;95816.00;;;8.65;79.33
52935;BME280;38802;50.198;19.796;2023-12-29T12:48:33;95815.77;;;8.65;79.18
52935;BME280;38802;50.198;19.796;2023-12-29T12:51:13;95810.30;;;8.62;79.30
52935;BME280;38802;50.198;19.796;2023-12-29T12:53:42;95814.41;;;8.57;79.52
52935;BME280;38802;50.198;19.796;2023-12-29T12:56:12;95804.16;;;8.57;79.62
52935;BME280;38802;50.198;19.796;2023-12-29T12:58:41;95802.64;;;8.52;79.82
52935;BME280;38802;50.198;19.796;2023-12-29T13:01:10;95807.92;;;8.53;79.82
52935;BME280;38802;50.198;19.796;2023-12-29T13:03:39;95805.02;;;8.49;79.98
52935;BME280;38802;50.198;19.796;2023-12-29T13:06:08;95807.63;;;8.44;80.31
52935;BME280;38802;50.198;19.796;2023-12-29T13:08:36;95804.16;;;8.44;80.36
52935;BME280;38802;50.198;19.796;2023-12-29T13:11:10;95802.61;;;8.42;80.45
52935;BME280;38802;50.198;19.796;2023-12-29T13:13:42;95797.01;;;8.45;80.27
52935;BME280;38802;50.198;19.796;2023-12-29T13:16:14;95791.27;;;8.45;79.93
52935;BME280;38802;50.198;19.796;2023-12-29T13:18:45;95795.12;;;8.45;79.81
52935;BME280;38802;50.198;19.796;2023-12-29T13:24:45;95796.00;;;8.32;80.32
52935;BME280;38802;50.198;19.796;2023-12-29T13:27:22;95799.42;;;8.30;80.31
52935;BME280;38802;50.198;19.796;2023-12-29T13:29:53;95800.14;;;8.34;80.16
52935;BME280;38802;50.198;19.796;2023-12-29T13:32:23;95803.46;;;8.32;80.07